Beach, Georgia
Current Conditions -  °F | °C
As of 11:53 PM on Thursday 27 Nov 2014 (Local Time) from KAMG Reporting Station
Clear Clear  
Wind Chill: 35°   Ceiling: Unl
Heat Index: 40°   Visibility: 10mi
Dew Point: 30°   Wind: 7mph
Humidity: 68%   Direction: 340°NNW
Pressure: 30.35"   Gusts: NA
Location:  31.4253°N, 82.5972°W
Report Text: KAMG 280453Z AUTO 34006KT 10SM CLR 04/M01 A3035 RMK AO2 SLP278 T00441011 401330022
Loading
Personal Weather Stations






























Interactive Weather Map New forecast layout! Learn more

10-Day Weather Forecast

Advertisements
Track Severe Weather on mobile